Domov               UVHVVR             MKGP            O straneh              
ZDRAVSTVENO VARSTVO RASTLIN
  MREŽA AGROMET. POSTAJ
 ► PROGNOSTIČNA OBVESTILA
AGROMETEOROLOŠKI PODATKI -
ARSO
OBVLADOVANJE TVEGANJ ZARADI
NEUGODNIH VREMENSKIH RAZMER
  ► NARAVNE NESREČE
  ► SUŠA/MOČA
  ► NAMAKANJE
  ► ŽLED (gozdarstvo)
KARTOGRAFSKI PRIKAZI
SPLETNE POVEZAVE
PROJEKTI IN PUBLIKACIJE

AGROMETEOROLOŠKA MREŽA: VREMENSKE POSTAJE IN FENOLOŠKA OPAZOVANJA

Pregled podatkov za lokacijo Šlovrenc, meteorološka postaja 859088

Pregled senzorjev na lokaciji

ID Ime Zadnja
vrednost
Datum
zadnje
spremembe
Tip
senzorja
4325 Omočenost lista (U) 0 U 18.3.2019 22:30 A730WET
3976 Padavine (mm) 0 mm 18.3.2019 22:29 Rain-O-Matic
3974 Relativna vlaga 2 m (% RH) 64,62 % RH 18.3.2019 22:30 50YA
3973 Temperatura 2 m (°C) 7,26 °C 18.3.2019 22:30 50YA

Pregled podatkov zadnjih 24 ur

Zap.
št.
Datum in čas Šlovrenc
Omočenost
lista
Padavine Relativna
vlaga
2
m
Temperatura
2
m
1 18.3.2019 22:00
2 18.3.2019 21:30 0 0 64,6 7,3
3 18.3.2019 21:00 0 0 70,9 6,7
4 18.3.2019 20:30 0 0 65,3 7,4
5 18.3.2019 20:00 0 0 60,7 7,9
6 18.3.2019 19:30 0 0 62 7,8
7 18.3.2019 19:00 1 0 66,3 7,4
8 18.3.2019 18:30 1 0 70,3 7
9 18.3.2019 18:00 1 0 71,2 7
10 18.3.2019 17:30 1 0 70,9 7,1
11 18.3.2019 17:00 9 0 73,3 6,9
12 18.3.2019 16:30 10 0 76 6,7
13 18.3.2019 16:00 1 0 77,5 6,6
14 18.3.2019 15:30 7 0 81,8 6,4
15 18.3.2019 15:00 8 0,4 84,7 5,9
16 18.3.2019 14:30 6 0,4 86,7 5,7
17 18.3.2019 14:00 8 0,6 92,2 5,3
18 18.3.2019 13:30 8 1 92,2 5,1
19 18.3.2019 13:00 9 1 85,9 5,7
20 18.3.2019 12:30 8 1 85,5 5,7
21 18.3.2019 12:00 6 2 88,7 5,3
22 18.3.2019 11:30 7 1,8 88,3 5,2
23 18.3.2019 11:00 9 3,8 89,5 5,9
24 18.3.2019 10:30 10 3,4 93,4 7,6
25 18.3.2019 10:00 10 1,2 88,9 9,1
26 18.3.2019 09:30 10 0,4 92,2 11,1
27 18.3.2019 09:00 10 0 95,6 10,7
28 18.3.2019 08:30 10 0 93,6 10,9
29 18.3.2019 08:00 10 0,4 96 10,6
30 18.3.2019 07:30 10 0,2 93,9 10,7
31 18.3.2019 07:00 10 0,4 94,5 10,8
32 18.3.2019 06:30 10 2 94,7 10,8
33 18.3.2019 06:00 10 0,2 85,9 11,7
34 18.3.2019 05:30 1 0 82,6 12,1
35 18.3.2019 05:00 0 0 83,9 12
36 18.3.2019 04:30 0 0 85,9 12
37 18.3.2019 04:00 0 0 88,5 11,8
38 18.3.2019 03:30 0 0 90,8 11,7
39 18.3.2019 03:00 10 0 94,7 11,3
40 18.3.2019 02:30 10 0 98,9 10,7
41 18.3.2019 02:00 10 0 98,6 10,7
42 18.3.2019 01:30 10 0 97,6 10,8
43 18.3.2019 01:00 7 0 96,7 10,9
44 18.3.2019 00:30 0 0 95,7 11
45 18.3.2019 00:00 0 0 94,6 11,2
46 17.3.2019 23:30 0 0 93,8 11,2
47 17.3.2019 23:00 0 0 93,3 11,4
48 17.3.2019 22:30 0 0 92,9 11,5
© 2011 Ministrstvo za kmetijstvo, gozdarstvo in prehrano. Vse pravice pridržane.